25 septembre 2022

Temps Code Temps Temp. Vue Base cloud Vent METAR/SPECI
00:43
V
12 °C 10 km+ 6.500 ft 350° 350° 4 kt METAR EBCV 242243Z AUTO 35004KT 9999 FEW014/// OVC065/// 12/12 Q1015 BLU
00:25
V
12 °C 10 km+ 6.400 ft 020° 020° 3 kt METAR EBCV 242225Z AUTO 02003KT 9999 SCT014/// OVC064/// 12/12 Q1015 GRN
00:21
V
13 °C 10 km+ 6.200 ft 010° 010° 4 kt METAR EBCV 242221Z AUTO 01004KT 9999 SCT014/// SCT027/// OVC062/// 13/12 Q1015 GRN

24 septembre 2022

Temps Code Temps Temp. Vue Base cloud Vent METAR/SPECI
23:55
V
13 °C 10 km+ 4.800 ft 010° 010° 7 kt METAR EBCV 242155Z AUTO 01007KT 9999 SCT025/// OVC048/// 13/12 Q1015 BLU
23:25
V
13 °C 10 km+ 4.200 ft 030° 030° 7 kt METAR EBCV 242125Z AUTO 03007KT 9999 OVC042/// 13/11 Q1015 BLU
22:55
V
13 °C 10 km+ 4.100 ft 030° 030° 10 kt METAR EBCV 242055Z AUTO 03010KT 9999 OVC041/// 13/11 Q1015 BLU
22:43
V
13 °C 10 km+ 4.300 ft 030° 030° 12 kt METAR EBCV 242043Z AUTO 03012KT 9999 FEW022/// OVC043/// 13/12 Q1015 BLU
22:25
V
13 °C 10 km+ 4.300 ft 030° 030° 13 kt METAR EBCV 242025Z AUTO 03013KT 9999 SCT014/// OVC043/// 13/12 Q1015 GRN
22:15
V
13 °C 10 km+ 4.400 ft 020° 020° 14 kt METAR EBCV 242015Z AUTO 02014KT 9999 SCT014/// OVC044/// 13/11 Q1015 GRN
22:05
V
13 °C 10 km+ 4.500 ft 020° 020° 12 kt METAR EBCV 242005Z AUTO 02012KT 9999 SCT017/// BKN045/// BKN072/// 13/11 Q1015 WHT
21:55
V
13 °C 10 km+ 4.700 ft 020° 020° 10 kt METAR EBCV 241955Z AUTO 02010KT 9999 BKN047/// BKN084/// 13/11 Q1015 BLU
21:25
V
14 °C 10 km+ 4.100 ft 020° 020° 12 kt METAR EBCV 241925Z AUTO 02012KT 9999 OVC041/// 14/11 Q1014 BLU
20:55
V
14 °C 10 km+ 3.000 ft 010° 010° 12 kt METAR EBCV 241855Z AUTO 01012KT 9999 FEW016/// OVC030/// 14/11 Q1014 BLU
20:25
M
14 °C 10 km+ 2.800 ft 010° 010° 10 kt METAR EBCV 241825Z AUTO 01010KT 9999 SCT016/// OVC028/// 14/12 Q1014 WHT
19:55
M
14 °C 10 km+ 1.600 ft 010° 010° 12 kt METAR EBCV 241755Z AUTO 01012KT 9999 OVC016/// 14/12 Q1014 WHT
19:25
M
14 °C 10 km+ 1.500 ft 010° 010° 14 kt METAR EBCV 241725Z AUTO 01014KT 9999 OVC015/// 14/12 Q1013 WHT
19:20
M
14 °C 10 km+ 1.500 ft 010° 010° 13 kt METAR EBCV 241720Z AUTO 01013KT 9999 OVC015/// 14/12 Q1013 WHT
18:55
M
14 °C 10 km+ 1.400 ft 360° 360° 14 kt METAR EBCV 241655Z AUTO 36014KT 9999 OVC014/// 14/12 Q1013 GRN
18:25
M
14 °C 10 km+ 1.400 ft 350° 350° 11 kt METAR EBCV 241625Z AUTO 35011KT 9999 OVC014/// 14/12 Q1013 GRN
17:55
M
14 °C 10 km+ 1.400 ft 360° 360° 11 kt METAR EBCV 241555Z AUTO 36011KT 9999 OVC014/// 14/12 Q1013 GRN
17:25
M
14 °C 10 km+ 1.300 ft 360° 360° 12 kt METAR EBCV 241525Z AUTO 36012KT 9999 OVC013/// 14/12 Q1013 GRN
16:55
M
14 °C 10 km+ 1.100 ft 360° 360° 15 kt METAR EBCV 241455Z AUTO 36015KT 9999 OVC011/// 14/13 Q1013 GRN
16:25
M
14 °C 10 km+ 1.100 ft 360° 360° 12 kt METAR EBCV 241425Z AUTO 36012KT 9999 OVC011/// 14/13 Q1012 GRN
15:55
M
15 °C 10 km+ 1.000 ft 360° 360° 12 kt METAR EBCV 241355Z AUTO 36012KT 9999 BKN010/// OVC019/// 15/13 Q1012 GRN
15:49
M
14 °C 10 km+ 1.000 ft 010° 010° 9 kt METAR EBCV 241349Z AUTO 01009KT 9999 OVC010/// 14/14 Q1012 GRN
15:25
L
14 °C 10 km+ 400 ft 010° 010° 9 kt METAR EBCV 241325Z AUTO 01009KT 9999 BKN004/// 14/14 Q1012 YLO
14:55
I
14 °C 3,5 km 700 ft 240° 240° 4 kt METAR EBCV 241255Z AUTO 24004KT 3500 -RA OVC007/// 14/14 Q1012 YLO
14:37
I
14 °C 3,5 km 1.600 ft 250° 250° 6 kt METAR EBCV 241237Z AUTO 25006KT 3500 RA OVC016/// 14/13 Q1012 YLO
14:33
I
14 °C 4,8 km 1.700 ft 250° 250° 6 kt METAR EBCV 241233Z AUTO 25006KT 4800 +RA OVC017/// 14/13 Q1012 GRN
14:25
M
14 °C 9 km 1.700 ft 240° 240° 6 kt METAR EBCV 241225Z AUTO 24006KT 9000 -DZ OVC017/// 14/13 Q1012 WHT
13:55
M
14 °C 6 km 1.800 ft 260° 260° 5 kt METAR EBCV 241155Z AUTO 26005KT 6000 -RA OVC018/// 14/13 Q1012 WHT
13:53
I
14 °C 4,2 km 2.300 ft 260° 260° 6 kt METAR EBCV 241153Z AUTO 26006KT 4200 RA OVC023/// 14/13 Q1012 GRN
13:33
M
15 °C 7 km 3.400 ft 240° 240° 6 kt METAR EBCV 241133Z AUTO 24006KT 7000 RA FEW013/// OVC034/// 15/13 Q1012 WHT
13:25
V
15 °C 10 km+ 3.300 ft 240° 240° 6 kt METAR EBCV 241125Z AUTO 24006KT 9999 -RA FEW013/// OVC033/// 15/13 Q1012 BLU
13:20
V
15 °C 10 km+ 3.200 ft 240° 240° 7 kt METAR EBCV 241120Z AUTO 24007KT 9999 -RA FEW013/// OVC032/// 15/13 Q1012 BLU
12:55
V
15 °C 10 km+ 3.200 ft 220° 220° 9 kt METAR EBCV 241055Z AUTO 22009KT 9999 -RA SCT012/// BKN032/// OVC044/// 15/13 Q1012 GRN
12:50
V
15 °C 10 km+ 3.000 ft 220° 220° 8 kt METAR EBCV 241050Z AUTO 22008KT 9999 -RA SCT011/// BKN030/// OVC044/// 15/13 Q1012 GRN
12:25
V
15 °C 10 km+ 3.400 ft 220° 220° 10 kt METAR EBCV 241025Z AUTO 22010KT 9999 FEW011/// OVC034/// 15/13 Q1012 BLU
12:21
V
15 °C 10 km+ 3.700 ft 220° 220° 9 kt METAR EBCV 241021Z AUTO 22009KT 9999 FEW011/// BKN037/// 15/13 Q1012 BLU
12:10
V
15 °C 10 km+ 4.100 ft 220° 220° 9 kt METAR EBCV 241010Z AUTO 22009KT 9999 FEW010/// SCT023/// BKN041/// 15/13 Q1012 WHT
11:55
V
15 °C 10 km+ 4.100 ft 220° 220° 9 kt METAR EBCV 240955Z AUTO 22009KT 9999 SCT026/// BKN041/// 15/13 Q1012 BLU
11:25
M
14 °C 10 km+ 2.500 ft 210° 210° 6 kt METAR EBCV 240925Z AUTO 21006KT 9999 BKN025/// OVC043/// 14/13 Q1012 BLU
10:55
V
13 °C 8 km 4.500 ft 190° 190° 5 kt METAR EBCV 240855Z AUTO 19005KT 8000 BR SCT032/// OVC045/// 13/13 Q1012 BLU
10:25
M
13 °C 6 km 3.600 ft 220° 220° 6 kt METAR EBCV 240825Z AUTO 22006KT 6000 BR OVC036/// 13/13 Q1012 WHT
09:55
M
13 °C 5 km 4.600 ft 210° 210° 3 kt METAR EBCV 240755Z AUTO 21003KT 5000 -RA SCT028/// OVC046/// 13/12 Q1012 WHT
09:25
M
13 °C 6 km 4.700 ft 190° 190° 5 kt METAR EBCV 240725Z AUTO 19005KT 6000 BR OVC047/// 13/12 Q1012 WHT
08:55
M
12 °C 5 km 5.500 ft 190° 190° 5 kt METAR EBCV 240655Z AUTO 19005KT 5000 BR OVC055/// 12/12 Q1012 WHT
08:25
I
12 °C 4,6 km 5.900 ft 200° 200° 4 kt METAR EBCV 240625Z AUTO 20004KT 4600 BR OVC059/// 12/12 Q1012 GRN
08:03
I
12 °C 4,8 km 6.100 ft 200° 200° 4 kt METAR EBCV 240603Z AUTO 20004KT 4800 BR FEW049/// OVC061/// 12/12 Q1012 GRN
07:55
M
12 °C 5 km 5.300 ft 190° 190° 4 kt METAR EBCV 240555Z AUTO 19004KT 5000 BR OVC053/// 12/12 Q1012 WHT
07:25
M
12 °C 5 km 4.100 ft 190° 190° 4 kt METAR EBCV 240525Z AUTO 19004KT 5000 -RA OVC041/// 12/12 Q1012 WHT
07:08
I
12 °C 4,7 km 4.400 ft 200° 200° 4 kt METAR EBCV 240508Z AUTO 20004KT 4700 -RA OVC044/// 12/12 Q1012 GRN
06:55
M
12 °C 5 km 6.300 ft 190° 190° 5 kt METAR EBCV 240455Z AUTO 19005KT 5000 -RA OVC063/// 12/12 Q1012 WHT
06:39
I
12 °C 4,7 km 6.800 ft 200° 200° 4 kt METAR EBCV 240439Z AUTO 20004KT 4700 -RA OVC068/// 12/12 Q1012 GRN
06:25
M
12 °C 5 km 7.100 ft 190° 190° 4 kt METAR EBCV 240425Z AUTO 19004KT 5000 -DZ FEW047/// OVC071/// 12/12 Q1012 WHT
06:20
M
12 °C 5 km 7.100 ft 190° 190° 4 kt METAR EBCV 240420Z AUTO 19004KT 5000 -DZ FEW047/// OVC071/// 12/12 Q1012 WHT
05:55
I
12 °C 4,7 km 6.400 ft 180° 180° 4 kt METAR EBCV 240355Z AUTO 18004KT 4700 -RA OVC064/// 12/12 Q1012 GRN
05:46
I
12 °C 3,5 km 6.200 ft 190° 190° 3 kt METAR EBCV 240346Z AUTO 19003KT 3500 -RA OVC062/// 12/12 Q1012 YLO
05:25
I
12 °C 4,6 km 6.300 ft Var Var 2 kt METAR EBCV 240325Z AUTO VRB02KT 4600 -RA FEW012/// OVC063/// 12/12 Q1012 GRN
05:04
M
12 °C 5 km 6.800 ft 200° 200° 3 kt METAR EBCV 240304Z AUTO 20003KT 5000 -RA SCT012/// OVC068/// 12/12 Q1012 GRN
04:55
M
12 °C 5 km 6.400 ft 190° 190° 3 kt METAR EBCV 240255Z AUTO 19003KT 5000 -RA OVC064/// 12/12 Q1012 WHT
04:25
I
12 °C 4,8 km 5.000 ft 190° 190° 4 kt METAR EBCV 240225Z AUTO 19004KT 4800 -RA OVC050/// 12/12 Q1012 GRN
04:08
I
12 °C 4,7 km 4.900 ft 190° 190° 4 kt METAR EBCV 240208Z AUTO 19004KT 4700 BR OVC049/// 12/12 Q1013 GRN
03:55
M
12 °C 5 km 5.100 ft 210° 210° 3 kt METAR EBCV 240155Z AUTO 21003KT 5000 BR OVC051/// 12/12 Q1013 WHT
03:25
M
12 °C 5 km 7.700 ft 180° 180° 3 kt METAR EBCV 240125Z AUTO 18003KT 5000 -RA OVC077/// 12/12 Q1013 WHT
03:20
I
12 °C 4,3 km 7.700 ft Var Var 2 kt METAR EBCV 240120Z AUTO VRB02KT 4300 -RA OVC077/// 12/12 Q1013 GRN
02:55
M
12 °C 5 km 7.200 ft Var Var 2 kt METAR EBCV 240055Z AUTO VRB02KT 5000 -RA OVC072/// 12/12 Q1013 WHT
02:43
M
12 °C 5 km 7.500 ft 160° 160° 4 kt METAR EBCV 240043Z AUTO 16004KT 5000 -RA OVC075/// 12/12 Q1013 WHT
02:25
I
12 °C 3 km 7.700 ft 160° 160° 3 kt METAR EBCV 240025Z AUTO 16003KT 3000 -RA OVC077/// 12/12 Q1013 YLO
02:10
I
12 °C 3,6 km 7.400 ft Var Var 1 kt METAR EBCV 240010Z AUTO VRB01KT 3600 -RA OVC074/// 12/12 Q1013 YLO
02:03
I
13 °C 4,6 km 7.200 ft Var Var 1 kt METAR EBCV 240003Z AUTO VRB01KT 4600 -RA OVC072/// 13/12 Q1013 GRN
01:55
M
13 °C 5 km 7.100 ft Var Var 2 kt METAR EBCV 232355Z AUTO VRB02KT 5000 -RA OVC071/// 13/12 Q1013 WHT
01:54
I
13 °C 4,7 km 6.700 ft Var Var 2 kt METAR EBCV 232354Z AUTO VRB02KT 4700 -RA OVC067/// 13/12 Q1013 GRN
01:34
M
13 °C 7 km 6.600 ft Var Var 1 kt METAR EBCV 232334Z AUTO VRB01KT 7000 -RA OVC066/// 13/12 Q1014 WHT
01:25
V
13 °C 8 km 6.600 ft Var Var 1 kt METAR EBCV 232325Z AUTO VRB01KT 8000 -RA OVC066/// 13/12 Q1014 BLU
00:55
M
13 °C 6 km 6.800 ft 280° 280° 3 kt METAR EBCV 232255Z AUTO 28003KT 6000 -RA OVC068/// 13/12 Q1014 WHT
00:47
M
13 °C 6 km 7.000 ft Var Var 2 kt METAR EBCV 232247Z AUTO VRB02KT 6000 -RA OVC070/// 13/12 Q1014 WHT
00:36
I
13 °C 3,6 km 7.100 ft Var Var 2 kt METAR EBCV 232236Z AUTO VRB02KT 3600 -RA OVC071/// 13/13 Q1014 YLO
00:25
M
13 °C 5 km 7.100 ft 270° 270° 3 kt METAR EBCV 232225Z AUTO 27003KT 5000 -RA OVC071/// 13/13 Q1014 WHT

23 septembre 2022

Temps Code Temps Temp. Vue Base cloud Vent METAR/SPECI
23:55
M
13 °C 6 km 7.300 ft 230° 230° 3 kt METAR EBCV 232155Z AUTO 23003KT 6000 -RA OVC073/// 13/13 Q1014 WHT
23:25
M
13 °C 7 km 6.400 ft 210° 210° 3 kt METAR EBCV 232125Z AUTO 21003KT 7000 -RA OVC064/// 13/13 Q1014 WHT
23:14
M
13 °C 6 km 6.400 ft Var Var 2 kt METAR EBCV 232114Z AUTO VRB02KT 6000 -DZ OVC064/// 13/13 Q1014 WHT
22:55
V
14 °C 10 km+ 7.000 ft Var Var 2 kt METAR EBCV 232055Z AUTO VRB02KT 9999 OVC070/// 14/12 Q1014 BLU
22:25
V
14 °C 10 km+ 7.300 ft Var Var 2 kt METAR EBCV 232025Z AUTO VRB02KT 9999 BKN073/// 14/12 Q1014 BLU
21:55
V
14 °C 10 km+ 11.000 ft Var Var 2 kt METAR EBCV 231955Z AUTO VRB02KT 9999 SCT079/// BKN110/// BKN160/// 14/13 Q1014 BLU
21:25
V
14 °C 10 km+ 8.900 ft Var Var 2 kt METAR EBCV 231925Z AUTO VRB02KT 9999 OVC089/// 14/12 Q1014 BLU
20:55
V
14 °C 10 km+ 8.200 ft Var Var 2 kt METAR EBCV 231855Z AUTO VRB02KT 9999 FEW031/// OVC082/// 14/12 Q1014 BLU
20:25
M
14 °C 10 km+ 2.500 ft 200° 200° 4 kt METAR EBCV 231825Z AUTO 20004KT 9999 -RA BKN025/// BKN040/// OVC090/// 14/12 Q1014 BLU
19:55
V
15 °C 10 km+ 8.500 ft 190° 190° 4 kt METAR EBCV 231755Z AUTO 19004KT 9999 -RA FEW026/// OVC085/// 15/12 Q1014 BLU
19:25
V
15 °C 10 km+ 9.100 ft 200° 200° 4 kt METAR EBCV 231725Z AUTO 20004KT 9999 -RA OVC091/// 15/12 Q1014 BLU
18:55
V
15 °C 10 km+ 9.300 ft 180° 180° 5 kt METAR EBCV 231655Z AUTO 18005KT 9999 -DZ OVC093/// 15/12 Q1014 BLU
18:25
V
17 °C 10 km+ 9.600 ft 190° 190° 6 kt METAR EBCV 231625Z AUTO 19006KT 9999 -DZ SCT040/// OVC096/// 17/11 Q1014 BLU
17:55
V
17 °C 10 km+ 8.900 ft 250° 250° 4 kt METAR EBCV 231555Z AUTO 25004KT 9999 FEW042/// OVC089/// 17/10 Q1015 BLU
17:25
V
18 °C 10 km+ 7.900 ft 240° 240° 4 kt METAR EBCV 231525Z AUTO 24004KT 9999 FEW043/// BKN079/// 18/10 Q1015 BLU
16:55
V
18 °C 10 km+ 9.100 ft 240° 240° 5 kt METAR EBCV 231455Z AUTO 24005KT 9999 BKN091/// 18/10 Q1015 BLU
16:25
V
18 °C 10 km+ 9.700 ft 240° 240° 6 kt METAR EBCV 231425Z AUTO 24006KT 9999 BKN097/// 18/10 Q1015 BLU
15:55
V
19 °C 10 km+ 14.000 ft 220° 220° 6 kt METAR EBCV 231355Z AUTO 22006KT 9999 FEW035/// SCT100/// BKN140/// 19/09 Q1015 BLU
15:25
V
19 °C 10 km+ 14.000 ft 240° 240° 6 kt METAR EBCV 231325Z AUTO 24006KT 9999 BKN140/// BKN180/// 19/09 Q1015 BLU
14:55
V
19 °C 10 km+ - 240° 240° 6 kt METAR EBCV 231255Z AUTO 24006KT 9999 FEW036/// SCT130/// 19/09 Q1015 BLU
14:25
V
19 °C 10 km+ 12.000 ft 240° 240° 6 kt METAR EBCV 231225Z AUTO 24006KT 9999 FEW035/// BKN120/// 19/09 Q1016 BLU
13:55
V
18 °C 10 km+ 13.000 ft 220° 220° 5 kt METAR EBCV 231155Z AUTO 22005KT 9999 BKN130/// 18/09 Q1016 BLU
13:25
V
18 °C 10 km+ 15.000 ft 210° 210° 4 kt METAR EBCV 231125Z AUTO 21004KT 9999 BKN150/// 18/10 Q1016 BLU
12:55
V
17 °C 10 km+ 16.000 ft 230° 230° 6 kt METAR EBCV 231055Z AUTO 23006KT 9999 BKN160/// 17/09 Q1016 BLU
12:25
V
17 °C 10 km+ 15.000 ft 210° 210° 4 kt METAR EBCV 231025Z AUTO 21004KT 9999 BKN150/// 17/09 Q1016 BLU
11:55
V
16 °C 10 km+ 15.000 ft 220° 220° 4 kt METAR EBCV 230955Z AUTO 22004KT 9999 FEW095/// BKN150/// 16/08 Q1016 BLU
11:25
V
15 °C 10 km+ - 210° 210° 3 kt METAR EBCV 230925Z AUTO 21003KT 9999 FEW003/// 15/07 Q1017 BLU
11:24
V
15 °C 10 km+ - 210° 210° 3 kt METAR EBCV 230924Z AUTO 21003KT 9999 FEW003/// 15/07 Q1016 BLU
11:13
M
15 °C 7 km - 200° 200° 5 kt METAR EBCV 230913Z AUTO 20005KT 7000 FEW100/// SCT150/// 15/08 Q1017 WHT
10:55
V
14 °C 10 km+ 15.000 ft 200° 200° 7 kt METAR EBCV 230855Z AUTO 20007KT 9999 SCT100/// BKN150/// 14/08 Q1017 BLU
10:25
V
14 °C 10 km+ - 180° 180° 5 kt METAR EBCV 230825Z AUTO 18005KT 9999 /// 14/08 Q1016 BLU
09:55
V
12 °C 10 km+ - 170° 170° 3 kt METAR EBCV 230755Z AUTO 17003KT 9999 /// 12/08 Q1016 BLU
09:25
V
11 °C 10 km+ - Var Var 2 kt METAR EBCV 230725Z AUTO VRB02KT 9999 /// 11/08 Q1016 BLU
08:55
V
10 °C 10 km+ - Var Var 1 kt METAR EBCV 230655Z AUTO VRB01KT 9999 /// 10/08 Q1016 BLU
08:25
V
9 °C 10 km+ - Var Var 1 kt METAR EBCV 230625Z AUTO VRB01KT 9999 /// 09/07 Q1016 BLU
07:55
V
8 °C 10 km+ - Var Var 1 kt METAR EBCV 230555Z AUTO VRB01KT 9999 /// 08/07 Q1016 BLU
07:25
V
8 °C 10 km+ - Var Var 1 kt METAR EBCV 230525Z AUTO VRB01KT 9999 /// 08/07 Q1016 BLU
06:55
V
9 °C 10 km+ - 190° 190° 3 kt METAR EBCV 230455Z AUTO 19003KT 9999 /// 09/07 Q1016 BLU
06:25
V
8 °C 10 km+ - Var Var 1 kt METAR EBCV 230425Z AUTO VRB01KT 9999 /// 08/07 Q1016 BLU
05:55
V
9 °C 10 km+ - Var Var 1 kt METAR EBCV 230355Z AUTO VRB01KT 9999 /// 09/07 Q1016 BLU
05:25
V
8 °C 10 km+ - Var Var 2 kt METAR EBCV 230325Z AUTO VRB02KT 9999 /// 08/07 Q1017 BLU
04:55
V
8 °C 10 km+ - Var Var 1 kt METAR EBCV 230255Z AUTO VRB01KT 9999 /// 08/07 Q1017 BLU
04:25
V
9 °C 10 km+ - Var Var 1 kt METAR EBCV 230225Z AUTO VRB01KT 9999 /// 09/07 Q1017 BLU
03:55
V
8 °C 10 km+ - Var Var 2 kt METAR EBCV 230155Z AUTO VRB02KT 9999 /// 08/07 Q1017 BLU
03:25
V
9 °C 10 km+ - Var Var 1 kt METAR EBCV 230125Z AUTO VRB01KT 9999 /// 09/07 Q1017 BLU
02:55
V
9 °C 10 km+ - Var Var 1 kt METAR EBCV 230055Z AUTO VRB01KT 9999 /// 09/07 Q1017 BLU
02:25
V
9 °C 10 km+ - Var Var 1 kt METAR EBCV 230025Z AUTO VRB01KT 9999 /// 09/07 Q1018 BLU
01:55
V
9 °C 10 km+ - Var Var 1 kt METAR EBCV 222355Z AUTO VRB01KT 9999 /// 09/07 Q1018 BLU
01:25
V
9 °C 10 km+ - Var Var 1 kt METAR EBCV 222325Z AUTO VRB01KT 9999 /// 09/08 Q1018 BLU
00:55
V
10 °C 10 km+ - Var Var 1 kt METAR EBCV 222255Z AUTO VRB01KT 9999 /// 10/07 Q1018 BLU
00:25
V
10 °C 10 km+ - Var Var 1 kt METAR EBCV 222225Z AUTO VRB01KT 9999 /// 10/07 Q1018 BLU

22 septembre 2022

Temps Code Temps Temp. Vue Base cloud Vent METAR/SPECI
23:55
V
10 °C 10 km+ - Var Var 2 kt METAR EBCV 222155Z AUTO VRB02KT 9999 /// 10/08 Q1018 BLU
23:25
V
10 °C 10 km+ - Var Var 1 kt METAR EBCV 222125Z AUTO VRB01KT 9999 /// 10/08 Q1019 BLU
22:55
V
10 °C 10 km+ - Var Var 1 kt METAR EBCV 222055Z AUTO VRB01KT 9999 /// 10/08 Q1019 BLU
22:25
V
11 °C 10 km+ - Var Var 1 kt METAR EBCV 222025Z AUTO VRB01KT 9999 /// 11/08 Q1019 BLU
21:55
V
11 °C 10 km+ - Var Var 1 kt METAR EBCV 221955Z AUTO VRB01KT 9999 /// 11/08 Q1019 BLU
21:25
V
12 °C 10 km+ - 180° 180° 3 kt METAR EBCV 221925Z AUTO 18003KT 9999 /// 12/08 Q1019 BLU
20:55
V
13 °C 10 km+ - 190° 190° 4 kt METAR EBCV 221855Z AUTO 19004KT 9999 /// 13/07 Q1019 BLU
20:25
V
14 °C 10 km+ - 190° 190° 3 kt METAR EBCV 221825Z AUTO 19003KT 9999 /// 14/08 Q1019 BLU
19:55
V
14 °C 10 km+ - 180° 180° 3 kt METAR EBCV 221755Z AUTO 18003KT 9999 /// 14/08 Q1019 BLU
19:25
V
15 °C 10 km+ - Var Var 2 kt METAR EBCV 221725Z AUTO VRB02KT 9999 /// 15/09 Q1019 BLU
18:55
V
17 °C 10 km+ - Var Var 1 kt METAR EBCV 221655Z AUTO VRB01KT 9999 /// 17/09 Q1019 BLU
18:25
V
18 °C 10 km+ - Var Var 2 kt METAR EBCV 221625Z AUTO VRB02KT 9999 /// 18/06 Q1019 BLU
18:12
M
18 °C 6 km - Var Var 2 kt METAR EBCV 221612Z AUTO VRB02KT 6000 /// 18/07 Q1019 WHT
17:55
V
18 °C 10 km+ - Var Var 2 kt METAR EBCV 221555Z AUTO VRB02KT 9999 /// 18/06 Q1019 BLU
17:25
V
19 °C 10 km+ - 160° 160° 4 kt METAR EBCV 221525Z AUTO 16004KT 9999 /// 19/05 Q1020 BLU
16:55
V
19 °C 10 km+ - 170° 170° 3 kt METAR EBCV 221455Z AUTO 17003KT 9999 /// 19/06 Q1020 BLU
Données plus anciennes

Nous et des tiers suivons ton comportement sur Internet sur notre site Web à l'aide de cookies. Si tu continues, nous supposons que tu acceptes notre politique en matière de cookies. Apprendre plus